New Alexandria, Pennsylvania
Current Conditions -  °F | °C
As of 11:15 PM on Wednesday 17 Dec 2014 (Local Time) from KIDI Reporting Station
Overcast Overcast  
Wind Chill: 21°   Ceiling: 2000
Heat Index: 30°   Visibility: 8mi
Dew Point: 25°   Wind: 12mph
Humidity: 80%   Direction: 290°WNW
Pressure: 30.11"   Gusts: NA
Location:  40.4°N, 79.42°W
Report Text: KIDI 180415Z AUTO 29010KT 8SM BKN020 BKN027 OVC034 M01/M04 A3011 RMK A01
Loading
Personal Weather Stations






























Interactive Weather Map New forecast layout! Learn more

10-Day Weather Forecast

Advertisements
Track Severe Weather on mobile